Time;durP1;ratioP1;P1;durP2;ratioP2;P2;SDS_P1;SDS_P2;PMS_P1;PMS_P2;Temp;Humidity;BMP_temperature;BMP_pressure;BME280_temperature;BME280_humidity;BME280_pressure;Samples;Min_cycle;Max_cycle;Signal;HPM_P1;HPM_P2
2021/01/30 00:01:12;;;;;;;5.45;3.95;;;0.10;99.90;;;;;;5032131;28;20048;-64
2021/01/30 00:03:38;;;;;;;5.78;3.13;;;0.20;99.90;;;;;;5040596;28;20132;-64
2021/01/30 00:06:05;;;;;;;4.15;2.78;;;0.10;99.90;;;;;;5038598;28;20103;-63
2021/01/30 00:08:32;;;;;;;2.95;2.25;;;0.10;99.90;;;;;;5037602;28;20052;-62
2021/01/30 00:10:58;;;;;;;6.18;2.80;;;0.10;99.90;;;;;;5040266;28;20056;-63
2021/01/30 00:13:25;;;;;;;5.32;3.33;;;0.10;99.90;;;;;;5036160;28;20076;-63
2021/01/30 00:15:51;;;;;;;5.05;2.72;;;0.10;99.90;;;;;;5040754;28;20095;-64
2021/01/30 00:18:17;;;;;;;3.20;2.90;;;0.10;99.90;;;;;;5032041;28;20098;-63
2021/01/30 00:20:44;;;;;;;3.03;2.65;;;0.10;99.90;;;;;;5039733;28;20045;-66
2021/01/30 00:23:11;;;;;;;4.50;2.85;;;0.10;99.90;;;;;;5032248;28;20041;-65
2021/01/30 00:25:41;;;;;;;4.88;2.75;;;0.10;99.90;;;;;;5041135;28;20052;-67
2021/01/30 00:28:08;;;;;;;4.28;2.13;;;0.10;99.90;;;;;;5038219;28;20045;-63
2021/01/30 00:30:35;;;;;;;4.47;2.33;;;0.10;99.90;;;;;;5037577;28;20945;-63
2021/01/30 00:33:03;;;;;;;6.57;2.67;;;0.10;99.90;;;;;;5038053;28;20044;-62
2021/01/30 00:35:32;;;;;;;6.20;2.92;;;0.10;99.90;;;;;;5038147;28;20033;-62
2021/01/30 00:37:59;;;;;;;5.07;2.70;;;0.10;99.90;;;;;;5039815;28;20030;-63
2021/01/30 00:40:26;;;;;;;9.38;2.42;;;0.10;99.90;;;;;;5033592;28;20048;-64
2021/01/30 00:42:54;;;;;;;3.60;2.42;;;0.10;99.90;;;;;;5043909;28;20127;-63
2021/01/30 00:45:24;;;;;;;8.35;2.63;;;0.10;99.90;;;;;;5033853;28;20408;-63
2021/01/30 00:47:52;;;;;;;3.00;2.55;;;0.10;99.90;;;;;;5034979;28;20049;-64
2021/01/30 00:50:20;;;;;;;5.38;3.20;;;0.10;99.90;;;;;;5031845;28;20049;-63
2021/01/30 00:52:48;;;;;;;5.38;2.85;;;0.10;99.90;;;;;;5045068;28;20064;-62
2021/01/30 00:55:22;;;;;;;5.60;2.75;;;0.10;99.90;;;;;;5035054;28;20638;-62
2021/01/30 00:58:07;;;;;;;5.18;2.78;;;0.10;99.90;;;;;;5037730;28;20103;-66
2021/01/30 01:00:35;;;;;;;5.68;1.98;;;0.10;99.90;;;;;;5035173;28;20083;-63
2021/01/30 01:03:06;;;;;;;3.88;3.58;;;0.10;99.90;;;;;;5054475;28;20413;-63
2021/01/30 01:05:44;;;;;;;4.40;1.95;;;0.10;99.90;;;;;;5033737;28;20109;-63
2021/01/30 01:08:11;;;;;;;8.95;2.85;;;0.10;99.90;;;;;;5037356;28;20053;-66
2021/01/30 01:10:37;;;;;;;2.85;1.80;;;0.10;99.90;;;;;;5035851;28;20049;-62
2021/01/30 01:13:04;;;;;;;6.18;2.55;;;0.10;99.90;;;;;;5034313;28;20904;-63
2021/01/30 01:15:30;;;;;;;4.97;2.25;;;0.10;99.90;;;;;;5039977;28;20114;-63
2021/01/30 01:17:57;;;;;;;5.00;2.20;;;0.10;99.90;;;;;;5034916;28;21456;-63
2021/01/30 01:20:23;;;;;;;3.33;1.98;;;0.10;99.90;;;;;;5040056;28;20122;-63
2021/01/30 01:22:52;;;;;;;2.40;2.13;;;0.10;99.90;;;;;;5031815;28;20151;-62
2021/01/30 01:25:20;;;;;;;3.22;1.55;;;0.10;99.90;;;;;;5036242;28;20056;-63
2021/01/30 01:27:47;;;;;;;3.35;2.00;;;0.10;99.90;;;;;;5037706;28;20057;-63
2021/01/30 01:30:14;;;;;;;3.55;1.98;;;0.10;99.90;;;;;;5036480;28;20568;-63
2021/01/30 01:32:42;;;;;;;3.03;1.98;;;0.10;99.90;;;;;;5038597;28;20092;-64
2021/01/30 01:35:19;;;;;;;2.58;1.42;;;0.10;99.90;;;;;;5034192;28;20579;-63
2021/01/30 01:37:46;;;;;;;2.45;1.65;;;0.00;99.90;;;;;;5040092;28;20048;-63
2021/01/30 01:40:14;;;;;;;2.33;1.65;;;0.00;99.90;;;;;;5033866;28;20469;-63
2021/01/30 01:42:41;;;;;;;2.50;1.95;;;0.00;99.90;;;;;;5040655;28;20057;-63
2021/01/30 01:45:08;;;;;;;4.43;2.78;;;0.00;99.90;;;;;;5032122;28;20742;-63
2021/01/30 01:47:41;;;;;;;4.05;1.73;;;-0.10;99.90;;;;;;5040700;28;20165;-62
2021/01/30 01:50:28;;;;;;;5.65;1.88;;;-0.10;99.90;;;;;;5034256;28;20056;-63
2021/01/30 01:53:07;;;;;;;1.95;1.58;;;-0.10;99.90;;;;;;5038068;28;20114;-63
2021/01/30 01:55:34;;;;;;;6.53;2.17;;;-0.10;99.90;;;;;;5044701;28;20178;-66
2021/01/30 01:58:02;;;;;;;4.95;1.65;;;-0.10;99.90;;;;;;5035881;28;20412;-63
2021/01/30 02:00:29;;;;;;;3.00;1.70;;;0.00;99.90;;;;;;5033284;28;20115;-64
2021/01/30 02:02:57;;;;;;;6.35;3.15;;;-0.10;99.90;;;;;;5036229;28;20045;-65
2021/01/30 02:05:29;;;;;;;3.28;2.03;;;-0.10;99.90;;;;;;5038588;28;20061;-63
2021/01/30 02:07:59;;;;;;;6.45;1.83;;;-0.10;99.90;;;;;;5029738;28;20144;-63
2021/01/30 02:10:33;;;;;;;5.13;1.63;;;-0.10;99.90;;;;;;5040872;28;20613;-62
2021/01/30 02:13:04;;;;;;;2.60;1.92;;;0.00;99.90;;;;;;5033493;28;20053;-63
2021/01/30 02:15:31;;;;;;;6.63;1.77;;;-0.10;99.90;;;;;;5037889;28;20139;-65
2021/01/30 02:18:20;;;;;;;4.68;2.03;;;-0.10;99.90;;;;;;5030491;28;20034;-62
2021/01/30 02:21:20;;;;;;;5.22;4.78;;;-0.10;99.90;;;;;;5034403;28;20142;-65
2021/01/30 02:23:50;;;;;;;3.60;2.72;;;-0.10;99.90;;;;;;5030632;28;20091;-63
2021/01/30 02:26:33;;;;;;;4.38;2.17;;;-0.10;99.90;;;;;;5035264;28;20114;-62
2021/01/30 02:29:18;;;;;;;4.95;2.63;;;-0.20;99.90;;;;;;5033100;28;20463;-66
2021/01/30 02:31:56;;;;;;;3.70;2.28;;;-0.10;99.90;;;;;;5037614;28;20048;-64
2021/01/30 02:34:46;;;;;;;3.20;2.25;;;-0.10;99.90;;;;;;5032500;28;20526;-65
2021/01/30 02:37:25;;;;;;;3.50;1.77;;;-0.20;99.90;;;;;;5033062;28;20045;-62
2021/01/30 02:40:08;;;;;;;2.17;1.93;;;-0.10;99.90;;;;;;5030358;28;20040;-62
2021/01/30 02:42:42;;;;;;;5.18;3.08;;;-0.20;99.90;;;;;;5035926;28;20285;-64
2021/01/30 02:45:15;;;;;;;8.95;2.28;;;-0.20;99.90;;;;;;5030296;28;20060;-65
2021/01/30 02:47:49;;;;;;;3.83;1.67;;;-0.20;99.90;;;;;;5034540;28;20335;-62
2021/01/30 02:50:22;;;;;;;4.95;2.30;;;-0.10;99.90;;;;;;5036277;28;20056;-65
2021/01/30 02:52:53;;;;;;;1.95;1.48;;;-0.20;99.90;;;;;;5033896;28;20579;-64
2021/01/30 02:55:20;;;;;;;1.85;1.38;;;-0.20;99.90;;;;;;5040988;28;20048;-65
2021/01/30 02:57:49;;;;;;;1.75;1.60;;;-0.20;99.90;;;;;;5033812;28;20044;-62
2021/01/30 03:00:19;;;;;;;2.08;1.20;;;-0.20;99.90;;;;;;5037473;28;20056;-62
2021/01/30 03:02:46;;;;;;;6.35;2.08;;;-0.20;99.90;;;;;;5034603;28;20458;-63
2021/01/30 03:05:14;;;;;;;2.70;1.70;;;-0.20;99.90;;;;;;5042428;28;20052;-63
2021/01/30 03:07:58;;;;;;;3.78;1.23;;;-0.20;99.90;;;;;;5032642;28;20111;-62
2021/01/30 03:10:36;;;;;;;4.07;1.80;;;-0.20;99.90;;;;;;5038720;28;20746;-62
2021/01/30 03:13:34;;;;;;;1.45;1.33;;;-0.20;99.90;;;;;;5037984;28;20068;-62
2021/01/30 03:16:14;;;;;;;3.00;1.55;;;-0.20;99.90;;;;;;5041097;28;20049;-63
2021/01/30 03:19:03;;;;;;;4.18;1.60;;;-0.20;99.90;;;;;;5032749;28;20161;-62
2021/01/30 03:21:31;;;;;;;3.42;1.63;;;-0.20;99.90;;;;;;5040912;28;20057;-62
2021/01/30 03:24:01;;;;;;;2.45;1.92;;;-0.30;99.90;;;;;;5035414;28;20787;-63
2021/01/30 03:26:28;;;;;;;2.35;1.65;;;-0.30;99.90;;;;;;5039915;28;20111;-62
2021/01/30 03:28:55;;;;;;;2.72;1.95;;;-0.30;99.90;;;;;;5039631;28;20511;-62
2021/01/30 03:31:23;;;;;;;4.35;1.75;;;-0.30;99.90;;;;;;5040257;28;20067;-62
2021/01/30 03:33:49;;;;;;;3.80;2.17;;;-0.30;99.90;;;;;;5042402;28;20053;-64
2021/01/30 03:36:16;;;;;;;4.20;1.63;;;-0.30;99.90;;;;;;5035118;28;20047;-63
2021/01/30 03:38:43;;;;;;;2.88;1.40;;;-0.30;99.90;;;;;;5043651;28;20053;-62
2021/01/30 03:41:09;;;;;;;2.25;1.80;;;-0.40;99.90;;;;;;5033660;28;20131;-63
2021/01/30 03:43:36;;;;;;;3.65;1.33;;;-0.40;99.90;;;;;;5039530;28;20045;-62
2021/01/30 03:46:03;;;;;;;4.40;1.55;;;-0.30;99.90;;;;;;5038003;28;20049;-66
2021/01/30 03:48:30;;;;;;;2.78;1.60;;;-0.30;99.90;;;;;;5039436;28;20661;-63
2021/01/30 03:50:56;;;;;;;3.70;1.73;;;-0.30;99.90;;;;;;5034834;28;20464;-63
2021/01/30 03:53:22;;;;;;;2.35;1.38;;;-0.30;99.90;;;;;;5036283;28;20068;-64
2021/01/30 03:55:49;;;;;;;5.25;1.58;;;-0.30;99.90;;;;;;5043066;28;20544;-63
2021/01/30 03:58:15;;;;;;;2.47;1.65;;;-0.30;99.90;;;;;;5035722;28;20053;-62
2021/01/30 04:00:42;;;;;;;6.38;1.73;;;-0.30;99.90;;;;;;5045372;28;20059;-64
2021/01/30 04:03:08;;;;;;;1.88;1.65;;;-0.30;99.90;;;;;;5035835;28;20032;-63
2021/01/30 04:05:35;;;;;;;5.15;2.03;;;-0.30;99.90;;;;;;5040348;28;20056;-63
2021/01/30 04:08:02;;;;;;;4.88;2.17;;;-0.40;99.90;;;;;;5035661;28;20136;-66
2021/01/30 04:10:34;;;;;;;5.30;2.15;;;-0.40;99.90;;;;;;5038772;28;20094;-62
2021/01/30 04:13:08;;;;;;;5.25;1.70;;;-0.40;99.90;;;;;;5033951;28;20540;-63
2021/01/30 04:15:39;;;;;;;6.65;2.47;;;-0.50;99.90;;;;;;5035181;28;20522;-62
2021/01/30 04:18:07;;;;;;;3.67;2.17;;;-0.50;99.90;;;;;;5036887;28;20605;-62
2021/01/30 04:20:33;;;;;;;3.10;1.98;;;-0.50;99.90;;;;;;5033321;28;21708;-65
2021/01/30 04:23:01;;;;;;;6.55;2.65;;;-0.50;99.90;;;;;;5040651;28;20056;-64
2021/01/30 04:25:28;;;;;;;3.58;1.83;;;-0.60;99.90;;;;;;5033302;28;20135;-63
2021/01/30 04:27:56;;;;;;;3.63;2.15;;;-0.60;99.90;;;;;;5041555;28;20605;-63
2021/01/30 04:30:26;;;;;;;6.00;2.28;;;-0.60;99.90;;;;;;5032914;28;20099;-63
2021/01/30 04:32:54;;;;;;;3.20;1.85;;;-0.60;99.90;;;;;;5042964;28;20065;-63
2021/01/30 04:35:26;;;;;;;4.38;2.00;;;-0.60;99.90;;;;;;5036807;28;20683;-65
2021/01/30 04:37:53;;;;;;;2.92;2.20;;;-0.60;99.90;;;;;;5037920;28;20053;-64
2021/01/30 04:40:28;;;;;;;2.80;2.08;;;-0.60;99.90;;;;;;5035981;28;20334;-62
2021/01/30 04:43:12;;;;;;;1.98;1.60;;;-0.70;99.90;;;;;;5036646;28;20419;-63
2021/01/30 04:45:53;;;;;;;3.05;2.03;;;-0.70;99.90;;;;;;5032005;28;20049;-62
2021/01/30 04:48:46;;;;;;;1.83;1.52;;;-0.70;99.90;;;;;;5036806;28;20053;-65
2021/01/30 04:51:35;;;;;;;2.03;1.83;;;-0.80;99.90;;;;;;5039088;28;20742;-63
2021/01/30 04:54:39;;;;;;;2.17;1.93;;;-0.80;99.90;;;;;;5038181;28;20132;-62
2021/01/30 04:57:50;;;;;;;2.35;1.85;;;-0.70;99.90;;;;;;5032803;28;20048;-62
2021/01/30 05:00:51;;;;;;;4.35;1.98;;;-0.70;99.90;;;;;;5032612;28;20057;-63
2021/01/30 05:03:46;;;;;;;5.40;2.25;;;-0.70;99.90;;;;;;5034436;28;20469;-63
2021/01/30 05:06:16;;;;;;;4.20;1.55;;;-0.70;99.90;;;;;;5037189;28;20072;-63
2021/01/30 05:08:54;;;;;;;4.30;1.83;;;-0.70;99.90;;;;;;5033346;28;20041;-62
2021/01/30 05:11:22;;;;;;;1.60;1.10;;;-0.80;99.90;;;;;;5038812;28;20045;-62
2021/01/30 05:14:10;;;;;;;4.82;1.90;;;-0.80;99.90;;;;;;5035474;28;20128;-63
2021/01/30 05:16:59;;;;;;;4.72;1.45;;;-0.80;99.90;;;;;;5038029;28;20047;-63
2021/01/30 05:19:31;;;;;;;1.55;1.42;;;-0.80;99.90;;;;;;5036742;28;20140;-63
2021/01/30 05:22:17;;;;;;;9.10;2.08;;;-0.80;99.90;;;;;;5038483;28;20644;-62
2021/01/30 05:24:44;;;;;;;1.52;1.42;;;-0.80;99.90;;;;;;5039136;28;20064;-64
2021/01/30 05:27:20;;;;;;;3.10;2.08;;;-0.70;99.90;;;;;;5037074;28;20045;-62
2021/01/30 05:29:55;;;;;;;3.17;2.03;;;-0.80;99.90;;;;;;5038252;28;20429;-63
2021/01/30 05:33:09;;;;;;;3.15;2.05;;;-0.70;99.90;;;;;;5034181;28;20615;-62
2021/01/30 05:35:55;;;;;;;2.10;1.90;;;-0.80;99.90;;;;;;5032627;28;20508;-63
2021/01/30 05:38:46;;;;;;;2.78;1.80;;;-0.80;99.90;;;;;;5035631;28;20572;-63
2021/01/30 05:41:38;;;;;;;2.20;1.55;;;-0.90;99.90;;;;;;5030346;28;20097;-62
2021/01/30 05:44:14;;;;;;;3.35;1.83;;;-0.90;99.90;;;;;;5037076;28;20890;-62
2021/01/30 05:46:41;;;;;;;2.13;1.88;;;-1.00;99.90;;;;;;5035042;28;20459;-62
2021/01/30 05:49:16;;;;;;;2.85;1.55;;;-1.00;99.90;;;;;;5035964;28;20460;-62
2021/01/30 05:51:50;;;;;;;2.45;1.85;;;-1.10;99.90;;;;;;5037608;28;20371;-64
2021/01/30 05:54:16;;;;;;;4.80;2.25;;;-1.10;99.90;;;;;;5030371;28;20061;-63
2021/01/30 05:56:44;;;;;;;5.65;2.35;;;-1.00;99.90;;;;;;5043016;28;20053;-65
2021/01/30 05:59:16;;;;;;;4.63;1.80;;;-1.00;99.90;;;;;;5033507;28;20051;-62
2021/01/30 06:01:42;;;;;;;2.92;2.15;;;-1.10;99.90;;;;;;5037904;28;20048;-65
2021/01/30 06:04:11;;;;;;;2.33;1.30;;;-1.10;99.90;;;;;;5035376;28;20413;-63
2021/01/30 06:06:51;;;;;;;2.90;2.03;;;-1.10;99.90;;;;;;5036890;28;20045;-62
2021/01/30 06:09:33;;;;;;;;;;;-1.20;99.90;;;;;;5030775;28;20049;-64
2021/01/30 06:12:02;;;;;;;4.05;2.42;;;-1.20;99.90;;;;;;5035212;28;19952;-64
2021/01/30 06:14:37;;;;;;;3.42;2.03;;;-1.20;99.90;;;;;;5031680;28;20077;-62
2021/01/30 06:17:15;;;;;;;3.50;2.38;;;-1.30;99.90;;;;;;5039453;28;20055;-62
2021/01/30 06:19:41;;;;;;;3.58;1.52;;;-1.30;99.90;;;;;;5034516;28;20195;-63
2021/01/30 06:22:14;;;;;;;4.10;2.05;;;-1.30;99.90;;;;;;5034781;28;20453;-62
2021/01/30 06:24:44;;;;;;;1.73;1.42;;;-1.30;99.90;;;;;;5035418;28;20503;-65
2021/01/30 06:27:30;;;;;;;8.23;3.25;;;-1.30;99.90;;;;;;5037190;28;20520;-62
2021/01/30 06:30:07;;;;;;;6.70;2.55;;;-1.30;99.90;;;;;;5036207;28;20048;-64
2021/01/30 06:32:40;;;;;;;6.00;2.47;;;-1.30;99.90;;;;;;5042038;28;20056;-63
2021/01/30 06:35:10;;;;;;;3.25;1.90;;;-1.30;99.90;;;;;;5032323;28;20049;-62
2021/01/30 06:38:01;;;;;;;3.22;2.03;;;-1.30;99.90;;;;;;5033991;28;20408;-62
2021/01/30 06:40:56;;;;;;;2.38;1.95;;;-1.30;99.90;;;;;;5030997;28;21168;-62
2021/01/30 06:43:35;;;;;;;2.55;2.20;;;-1.30;99.90;;;;;;5032386;28;20052;-64
2021/01/30 06:46:07;;;;;;;1.42;1.33;;;-1.40;99.90;;;;;;5033954;28;20059;-63
2021/01/30 06:48:57;;;;;;;2.58;1.92;;;-1.40;99.90;;;;;;5035423;28;20053;-62
2021/01/30 06:51:35;;;;;;;2.13;1.83;;;-1.40;99.90;;;;;;5034085;28;20401;-62
2021/01/30 06:54:25;;;;;;;3.63;2.00;;;-1.40;99.90;;;;;;5035877;28;20040;-62
2021/01/30 06:57:19;;;;;;;3.65;1.83;;;-1.40;99.90;;;;;;5027538;28;20141;-63
2021/01/30 07:00:05;;;;;;;2.67;1.50;;;-1.50;99.90;;;;;;5038315;28;20048;-62
2021/01/30 07:03:11;;;;;;;3.22;1.50;;;-1.50;99.90;;;;;;5026968;28;20052;-64
2021/01/30 07:06:08;;;;;;;1.70;1.60;;;-1.50;99.90;;;;;;5013903;28;20592;-64
2021/01/30 07:08:58;;;;;;;3.67;1.67;;;-1.50;99.90;;;;;;5027732;28;20132;-62
2021/01/30 07:11:43;;;;;;;4.75;2.33;;;-1.40;99.90;;;;;;5031656;28;20069;-62
2021/01/30 07:14:28;;;;;;;4.60;1.92;;;-1.50;99.90;;;;;;5028705;28;20085;-63
2021/01/30 07:16:58;;;;;;;2.13;1.25;;;-1.50;99.90;;;;;;5038746;28;20068;-63
2021/01/30 07:19:36;;;;;;;1.48;1.38;;;-1.50;99.90;;;;;;5034771;28;20048;-62
2021/01/30 07:22:13;;;;;;;6.65;2.10;;;-1.50;99.90;;;;;;5033720;28;20048;-62
2021/01/30 07:25:02;;;;;;;1.02;1.00;;;-1.50;99.90;;;;;;5033723;28;20512;-62
2021/01/30 07:28:04;;;;;;;3.30;1.70;;;-1.50;99.90;;;;;;5037442;28;20100;-62
2021/01/30 07:30:47;;;;;;;1.55;1.08;;;-1.40;99.90;;;;;;5030925;28;20045;-62
2021/01/30 07:33:23;;;;;;;2.55;1.15;;;-1.50;99.90;;;;;;5038466;28;20055;-62
2021/01/30 07:36:11;;;;;;;1.75;1.20;;;-1.50;99.90;;;;;;5032424;28;20056;-62
2021/01/30 07:38:46;;;;;;;2.80;2.22;;;-1.40;99.90;;;;;;5036760;28;20106;-62
2021/01/30 07:41:48;;;;;;;2.70;1.13;;;-1.40;99.90;;;;;;5032484;28;20041;-62
2021/01/30 07:44:40;;;;;;;7.20;1.58;;;-1.50;99.90;;;;;;5036663;28;20041;-62
2021/01/30 07:47:10;;;;;;;1.85;1.23;;;-1.40;99.90;;;;;;5027163;28;20045;-62
2021/01/30 07:49:39;;;;;;;;;;;-1.50;99.90;;;;;;5040187;28;20072;-62
2021/01/30 07:52:09;;;;;;;1.40;0.98;;;-1.50;99.90;;;;;;5038531;28;20031;-63
2021/01/30 07:54:46;;;;;;;2.97;2.53;;;-1.40;99.90;;;;;;5034668;28;20053;-62
2021/01/30 07:57:31;;;;;;;2.85;0.75;;;-1.50;99.90;;;;;;5038370;28;20053;-62
2021/01/30 08:00:09;;;;;;;3.67;0.98;;;-1.60;99.90;;;;;;5041851;28;20408;-61
2021/01/30 08:02:46;;;;;;;3.17;1.15;;;-1.60;99.90;;;;;;5032555;28;20045;-62
2021/01/30 08:05:43;;;;;;;3.08;0.70;;;-1.60;99.90;;;;;;5036989;28;20045;-63
2021/01/30 08:08:40;;;;;;;2.15;1.05;;;-1.60;99.90;;;;;;5039241;28;20400;-63
2021/01/30 08:11:29;;;;;;;2.47;0.88;;;-1.60;99.90;;;;;;5030088;28;20200;-62
2021/01/30 08:13:58;;;;;;;3.05;2.47;;;-1.50;99.90;;;;;;5039780;28;20457;-64
2021/01/30 08:16:32;;;;;;;1.95;0.70;;;-1.60;99.90;;;;;;5034794;28;20152;-63
2021/01/30 08:19:05;;;;;;;1.17;0.80;;;-1.60;99.90;;;;;;5041097;28;20828;-62
2021/01/30 08:22:07;;;;;;;3.65;1.02;;;-1.70;99.90;;;;;;5037038;28;20067;-62
2021/01/30 08:24:48;;;;;;;3.83;0.90;;;-1.70;99.90;;;;;;5030400;28;20044;-63
2021/01/30 08:27:23;;;;;;;2.55;0.80;;;-1.70;99.90;;;;;;5038105;28;20468;-62
2021/01/30 08:29:55;;;;;;;3.28;0.60;;;-1.70;99.90;;;;;;5046634;28;20459;-62
2021/01/30 08:32:24;;;;;;;2.17;0.95;;;-1.60;99.90;;;;;;5034827;28;20051;-63
2021/01/30 08:34:52;;;;;;;2.95;0.98;;;-1.60;99.90;;;;;;5043460;28;20099;-63
2021/01/30 08:37:18;;;;;;;2.22;0.82;;;-1.60;99.90;;;;;;5034507;28;20051;-62
2021/01/30 08:40:07;;;;;;;4.55;1.40;;;-1.70;99.90;;;;;;5044953;28;20056;-63
2021/01/30 08:42:55;;;;;;;0.77;0.45;;;-1.70;99.90;;;;;;5030701;28;20045;-62
2021/01/30 08:45:42;;;;;;;2.97;1.42;;;-1.70;99.90;;;;;;5038537;28;20083;-62
2021/01/30 08:48:27;;;;;;;0.52;0.50;;;-1.70;99.90;;;;;;5034331;28;20440;-62
2021/01/30 08:50:56;;;;;;;2.40;0.80;;;-1.70;99.90;;;;;;5041102;28;20045;-62
2021/01/30 08:53:22;;;;;;;5.97;1.00;;;-1.70;99.90;;;;;;5034339;28;20106;-62
2021/01/30 08:56:04;;;;;;;1.00;0.55;;;-1.80;99.90;;;;;;5042776;28;20409;-62
2021/01/30 08:58:36;;;;;;;0.60;0.60;;;-1.70;99.90;;;;;;5031986;28;20069;-62
2021/01/30 09:01:21;;;;;;;4.90;0.70;;;-1.70;99.90;;;;;;5039484;28;20500;-61
2021/01/30 09:03:54;;;;;;;1.20;1.10;;;-1.70;99.90;;;;;;5037134;28;20080;-63
2021/01/30 09:06:38;;;;;;;5.47;1.17;;;-1.70;99.90;;;;;;5036912;28;20048;-64
2021/01/30 09:09:05;;;;;;;0.95;0.60;;;-1.70;99.90;;;;;;5038247;28;20095;-62
2021/01/30 09:11:46;;;;;;;3.63;0.93;;;-1.70;99.90;;;;;;5036843;28;20045;-61
2021/01/30 09:14:18;;;;;;;4.63;0.90;;;-1.70;99.90;;;;;;5031709;28;20045;-62
2021/01/30 09:16:56;;;;;;;2.95;0.80;;;-1.70;99.90;;;;;;5035131;28;20121;-61
2021/01/30 09:19:39;;;;;;;1.17;0.70;;;-1.70;99.90;;;;;;5036507;28;20045;-61
2021/01/30 09:22:35;;;;;;;1.58;0.43;;;-1.60;99.90;;;;;;5034118;28;20037;-63
2021/01/30 09:25:49;;;;;;;1.63;0.57;;;-1.60;99.90;;;;;;5038389;28;20037;-62
2021/01/30 09:28:30;;;;;;;1.30;0.55;;;-1.70;99.90;;;;;;5009355;28;20037;-62
2021/01/30 09:30:56;;;;;;;1.08;0.60;;;-1.60;99.90;;;;;;5036463;28;20103;-64
2021/01/30 09:33:32;;;;;;;1.70;0.67;;;-1.70;99.90;;;;;;5034196;28;20049;-62
2021/01/30 09:36:14;;;;;;;1.33;0.40;;;-1.60;99.90;;;;;;5036038;28;20041;-63
2021/01/30 09:38:46;;;;;;;2.22;1.48;;;-1.60;99.90;;;;;;5034137;28;20191;-62
2021/01/30 09:41:20;;;;;;;3.22;0.77;;;-1.50;99.90;;;;;;5035397;28;20060;-64
2021/01/30 09:43:48;;;;;;;2.47;1.00;;;-1.60;99.90;;;;;;5035925;28;20052;-63
2021/01/30 09:46:20;;;;;;;2.10;0.40;;;-1.60;99.90;;;;;;5040215;28;20689;-62
2021/01/30 09:48:48;;;;;;;4.70;0.82;;;-1.70;99.90;;;;;;5031974;28;20045;-63
2021/01/30 09:51:14;;;;;;;1.48;0.73;;;-1.80;99.90;;;;;;5041230;28;20257;-62
2021/01/30 09:53:49;;;;;;;2.53;1.17;;;-1.70;99.90;;;;;;5033360;28;20072;-61
2021/01/30 09:56:18;;;;;;;2.65;0.63;;;-1.70;99.90;;;;;;5037549;28;20052;-63
2021/01/30 09:58:53;;;;;;;1.45;0.55;;;-1.70;99.90;;;;;;5034408;28;20411;-64
2021/01/30 10:01:30;;;;;;;3.50;0.90;;;-1.60;99.90;;;;;;5037244;28;20041;-64
2021/01/30 10:03:57;;;;;;;5.18;0.75;;;-1.70;99.90;;;;;;5029639;28;20049;-62
2021/01/30 10:06:30;;;;;;;6.07;3.20;;;-1.70;99.90;;;;;;5032508;28;20166;-62
2021/01/30 10:09:11;;;;;;;6.28;1.17;;;-1.70;99.90;;;;;;5038188;28;20077;-62
2021/01/30 10:11:40;;;;;;;5.00;0.93;;;-1.70;99.90;;;;;;5037219;28;20330;-62
2021/01/30 10:14:07;;;;;;;4.88;0.60;;;-1.60;99.90;;;;;;5039529;28;20044;-62
2021/01/30 10:16:35;;;;;;;1.20;0.52;;;-1.60;99.90;;;;;;5031829;28;20974;-62
2021/01/30 10:19:28;;;;;;;1.52;1.00;;;-1.60;99.90;;;;;;5041883;28;20155;-62
2021/01/30 10:21:55;;;;;;;1.88;0.70;;;-1.60;99.90;;;;;;5033921;28;20486;-63
2021/01/30 10:24:28;;;;;;;2.50;0.70;;;-1.60;99.90;;;;;;5040552;28;20132;-64
2021/01/30 10:27:11;;;;;;;1.60;0.52;;;-1.60;99.90;;;;;;5031308;28;20052;-62
2021/01/30 10:29:38;;;;;;;3.95;0.85;;;-1.60;99.90;;;;;;5037537;28;20413;-62
2021/01/30 10:32:19;;;;;;;1.80;0.75;;;-1.60;99.90;;;;;;5032776;28;20049;-62
2021/01/30 10:34:48;;;;;;;4.45;0.60;;;-1.60;99.90;;;;;;5039518;28;20056;-62
2021/01/30 10:37:20;;;;;;;1.23;0.60;;;-1.60;99.90;;;;;;5032735;28;20103;-62
2021/01/30 10:40:00;;;;;;;2.20;0.63;;;-1.70;99.90;;;;;;5036884;28;20392;-62
2021/01/30 10:42:34;;;;;;;2.80;1.88;;;-1.70;99.90;;;;;;5027382;28;20045;-64
2021/01/30 10:45:26;;;;;;;2.67;1.40;;;-1.60;99.90;;;;;;5040337;28;20041;-62
2021/01/30 10:48:00;;;;;;;1.52;0.68;;;-1.60;99.90;;;;;;5032342;28;20473;-63
2021/01/30 10:50:32;;;;;;;4.10;1.38;;;-1.60;99.90;;;;;;5034737;28;20155;-64
2021/01/30 10:53:24;;;;;;;1.75;1.02;;;-1.60;99.90;;;;;;5032615;28;20432;-62
2021/01/30 10:55:52;;;;;;;5.18;1.55;;;-1.50;99.90;;;;;;5038995;28;20067;-64
2021/01/30 10:58:24;;;;;;;9.13;1.00;;;-1.50;99.90;;;;;;5028729;28;20111;-62
2021/01/30 11:01:11;;;;;;;3.10;0.63;;;-1.50;99.90;;;;;;5037987;28;20132;-63
2021/01/30 11:03:59;;;;;;;3.05;0.77;;;-1.50;99.90;;;;;;5030028;28;20141;-61
2021/01/30 11:06:32;;;;;;;1.55;0.60;;;-1.40;99.90;;;;;;5034838;28;20123;-63
2021/01/30 11:09:10;;;;;;;0.88;0.60;;;-1.40;99.90;;;;;;5032856;28;20488;-62
2021/01/30 11:11:38;;;;;;;4.60;0.93;;;-1.40;99.90;;;;;;5035355;28;20049;-64
2021/01/30 11:14:14;;;;;;;3.13;0.60;;;-1.40;99.90;;;;;;5032445;28;20041;-61
2021/01/30 11:16:42;;;;;;;3.20;0.50;;;-1.40;99.90;;;;;;5033327;28;20110;-62
2021/01/30 11:19:33;;;;;;;13.52;1.95;;;-1.40;99.90;;;;;;5031681;28;20057;-62
2021/01/30 11:22:17;;;;;;;2.10;0.80;;;-1.40;99.90;;;;;;5034494;28;20041;-64
2021/01/30 11:25:07;;;;;;;0.75;0.55;;;-1.40;99.90;;;;;;5040494;28;20041;-62
2021/01/30 11:27:33;;;;;;;3.15;0.80;;;-1.50;99.90;;;;;;5038686;28;20051;-62
2021/01/30 11:30:21;;;;;;;4.55;0.85;;;-1.30;99.90;;;;;;5042975;28;20148;-62
2021/01/30 11:33:14;;;;;;;0.60;0.60;;;-1.30;99.90;;;;;;5037651;28;20052;-62
2021/01/30 11:35:50;;;;;;;2.38;0.93;;;-1.40;99.90;;;;;;5055536;28;20053;-61
2021/01/30 11:38:19;;;;;;;3.05;0.60;;;-1.30;99.90;;;;;;5035449;28;20126;-62
2021/01/30 11:40:46;;;;;;;2.00;0.60;;;-1.30;99.90;;;;;;5039903;28;20163;-62
2021/01/30 11:43:13;;;;;;;3.30;1.17;;;-1.40;99.90;;;;;;5035165;28;20048;-64
2021/01/30 11:45:40;;;;;;;1.13;0.52;;;-1.40;99.90;;;;;;5043081;28;20079;-62
2021/01/30 11:48:07;;;;;;;2.83;1.20;;;-1.30;99.90;;;;;;5036865;28;20064;-62
2021/01/30 11:50:33;;;;;;;3.35;0.85;;;-1.40;99.90;;;;;;5042356;28;20118;-63
2021/01/30 11:53:09;;;;;;;3.97;0.82;;;-1.30;99.90;;;;;;5035953;28;20048;-61
2021/01/30 11:55:37;;;;;;;1.17;0.85;;;-1.40;99.90;;;;;;5038582;28;20045;-62
2021/01/30 11:58:04;;;;;;;3.90;1.05;;;-1.30;99.90;;;;;;5035149;28;20061;-62
2021/01/30 12:00:30;;;;;;;5.05;0.90;;;-1.40;99.90;;;;;;5038436;28;20149;-62
2021/01/30 12:03:00;;;;;;;2.17;1.98;;;-1.40;99.90;;;;;;5038627;28;20507;-63
2021/01/30 12:05:27;;;;;;;2.50;0.50;;;-1.50;99.90;;;;;;5038971;28;20040;-62
2021/01/30 12:07:54;;;;;;;1.15;0.75;;;-1.50;99.90;;;;;;5040128;28;20045;-62
2021/01/30 12:10:21;;;;;;;10.50;1.40;;;-1.50;99.90;;;;;;5037360;28;20080;-62
2021/01/30 12:12:48;;;;;;;1.60;1.17;;;-1.40;99.90;;;;;;5040993;28;20063;-62
2021/01/30 12:15:14;;;;;;;3.03;1.30;;;-1.30;99.90;;;;;;5037410;28;20049;-62
2021/01/30 12:17:45;;;;;;;1.77;1.50;;;-1.30;99.90;;;;;;5042149;28;20106;-62
2021/01/30 12:20:19;;;;;;;2.03;1.00;;;-1.30;99.90;;;;;;5036258;28;20041;-62
2021/01/30 12:22:47;;;;;;;4.07;1.15;;;-1.20;99.90;;;;;;5038687;28;20040;-62
2021/01/30 12:25:14;;;;;;;2.22;0.60;;;-1.20;99.90;;;;;;5035041;28;20049;-62
2021/01/30 12:27:47;;;;;;;2.05;1.08;;;-1.30;99.90;;;;;;5039336;28;20779;-61
2021/01/30 12:30:15;;;;;;;1.92;0.95;;;-1.30;99.90;;;;;;5037423;28;20044;-62
2021/01/30 12:32:41;;;;;;;1.85;1.20;;;-1.30;99.90;;;;;;5034774;28;20163;-62
2021/01/30 12:35:08;;;;;;;2.75;1.33;;;-1.30;99.90;;;;;;5040893;28;20053;-61
2021/01/30 12:37:35;;;;;;;2.88;1.02;;;-1.30;99.90;;;;;;5035658;28;20653;-63
2021/01/30 12:40:24;;;;;;;3.97;2.40;;;-1.40;99.90;;;;;;5040918;28;20713;-63
2021/01/30 12:42:51;;;;;;;1.08;0.73;;;-1.30;99.90;;;;;;5033132;28;20111;-64
2021/01/30 12:45:18;;;;;;;2.67;1.17;;;-1.30;99.90;;;;;;5043221;28;20053;-62
2021/01/30 12:47:45;;;;;;;3.63;0.98;;;-1.40;99.90;;;;;;5034368;28;20047;-64
2021/01/30 12:50:15;;;;;;;2.17;1.13;;;-1.40;99.90;;;;;;5039923;28;20059;-62
2021/01/30 12:52:42;;;;;;;4.53;0.93;;;-1.30;99.90;;;;;;5036532;28;20049;-62
2021/01/30 12:55:09;;;;;;;6.15;1.90;;;-1.50;99.90;;;;;;5035649;28;20044;-62
2021/01/30 12:57:35;;;;;;;1.15;0.90;;;-1.50;99.90;;;;;;5039979;28;20081;-62
2021/01/30 13:00:06;;;;;;;3.25;1.52;;;-1.40;99.90;;;;;;5035348;28;20057;-62
2021/01/30 13:02:32;;;;;;;3.40;1.35;;;-1.50;99.90;;;;;;5037937;28;20045;-61
2021/01/30 13:04:59;;;;;;;3.88;1.45;;;-1.50;99.90;;;;;;5034138;28;20057;-62
2021/01/30 13:07:25;;;;;;;2.70;1.00;;;-1.50;99.90;;;;;;5037789;28;20554;-63
2021/01/30 13:09:52;;;;;;;5.97;1.10;;;-1.50;99.90;;;;;;5033435;28;20049;-64
2021/01/30 13:12:18;;;;;;;3.22;1.83;;;-1.50;99.90;;;;;;5039334;28;20053;-63
2021/01/30 13:14:45;;;;;;;4.43;1.05;;;-1.50;99.90;;;;;;5035383;28;20342;-63
2021/01/30 13:17:11;;;;;;;3.60;1.55;;;-1.50;99.90;;;;;;5037464;28;20048;-61
2021/01/30 13:19:38;;;;;;;2.35;1.33;;;-1.60;99.90;;;;;;5038044;28;20037;-62
2021/01/30 13:22:04;;;;;;;1.90;1.10;;;-1.70;99.90;;;;;;5032824;28;20440;-63
2021/01/30 13:24:31;;;;;;;5.50;1.52;;;-1.70;99.90;;;;;;5038780;28;20072;-62
2021/01/30 13:27:03;;;;;;;2.33;0.90;;;-1.80;99.90;;;;;;5035275;28;20049;-63